Decoded Metar for UHSS (YUZHNO-SAKHALINSK in RUSSIA) (IATA:UUS) | Meteo·Mobile Aviation Weather
aviador You're here:

UHSS Decoded Metar

YUZHNO-SAKHALINSK in RUSSIA
Report Time2019-01-20 10:00:00
UTC Time2019-01-20 10:35:16
Flight Rules vfr VFR
Wind120° at 4 kt
W.Decomp.*RWY 19: 2.1 kt HW 3.4 kt LCW
W.Rank120° ranks 21
Current wind is below 120° avg. (5.1)
Visibility9999 m
Phenomena:N/A
Clouds:N/A
Expected CloudBase > 800 ft AGL from Temp-Dew spread
CeilingNone
Temp-17°C (ISA -32)
Dew Point-19°C (85% RH)
AAT-22.0°C
QNH1001 hPa
Density Alt-3,504 ft
Elevation102 ft
Report Wrong Elevation
Raw Report
METAR UHSS 201000Z 12002MPS 9999 NSC M17/M19 Q1001 R01/810365 NOSIG
RMK QFE749/0999=

Extra information for UHSS:More info

Metar Taf Metar & Taf Last 4 Metars F.Rules Stats Wind Profile Meteogram Temp Stats Airport Information Weather charts Add Link Nearby VenuesMetar ALERT Operation Metar Decoded Social comments